sensor_id;sensor_type;location;lat;lon;timestamp;pressure;altitude;pressure_sealevel;temperature;humidity
30021;BME280;16861;52.294;7.760;2023-04-03T00:00:29;101268.31;;;6.50;64.02
30021;BME280;16861;52.294;7.760;2023-04-03T00:02:56;101264.91;;;6.47;64.09
30021;BME280;16861;52.294;7.760;2023-04-03T00:05:22;101270.16;;;6.44;64.07
30021;BME280;16861;52.294;7.760;2023-04-03T00:07:49;101268.47;;;6.39;64.28
30021;BME280;16861;52.294;7.760;2023-04-03T00:10:16;101282.50;;;6.35;64.23
30021;BME280;16861;52.294;7.760;2023-04-03T00:12:42;101267.72;;;6.31;64.33
30021;BME280;16861;52.294;7.760;2023-04-03T00:15:09;101270.44;;;6.27;64.13
30021;BME280;16861;52.294;7.760;2023-04-03T00:17:36;101282.66;;;6.23;64.41
30021;BME280;16861;52.294;7.760;2023-04-03T00:20:03;101282.75;;;6.17;64.29
30021;BME280;16861;52.294;7.760;2023-04-03T00:22:30;101282.81;;;6.12;64.48
30021;BME280;16861;52.294;7.760;2023-04-03T00:24:56;101278.56;;;6.05;64.40
30021;BME280;16861;52.294;7.760;2023-04-03T00:27:22;101283.81;;;6.02;64.52
30021;BME280;16861;52.294;7.760;2023-04-03T00:29:49;101280.41;;;5.95;64.79
30021;BME280;16861;52.294;7.760;2023-04-03T00:32:15;101286.53;;;5.92;64.58
30021;BME280;16861;52.294;7.760;2023-04-03T00:34:42;101280.47;;;5.89;64.81
30021;BME280;16861;52.294;7.760;2023-04-03T00:37:08;101289.22;;;5.86;64.86
30021;BME280;16861;52.294;7.760;2023-04-03T00:39:34;101284.03;;;5.83;64.88
30021;BME280;16861;52.294;7.760;2023-04-03T00:42:01;101284.06;;;5.81;64.83
30021;BME280;16861;52.294;7.760;2023-04-03T00:46:54;101287.56;;;5.79;64.58
30021;BME280;16861;52.294;7.760;2023-04-03T00:49:21;101286.72;;;5.75;64.83
30021;BME280;16861;52.294;7.760;2023-04-03T00:51:47;101289.34;;;5.73;65.02
30021;BME280;16861;52.294;7.760;2023-04-03T00:54:14;101292.03;;;5.70;65.27
30021;BME280;16861;52.294;7.760;2023-04-03T00:56:41;101281.59;;;5.69;65.03
30021;BME280;16861;52.294;7.760;2023-04-03T00:59:16;101280.78;;;5.64;64.31
30021;BME280;16861;52.294;7.760;2023-04-03T01:01:52;101285.13;;;5.63;65.38
30021;BME280;16861;52.294;7.760;2023-04-03T01:07:02;101285.22;;;5.57;64.58
30021;BME280;16861;52.294;7.760;2023-04-03T01:09:31;101286.06;;;5.56;65.07
30021;BME280;16861;52.294;7.760;2023-04-03T01:12:31;101286.16;;;5.48;64.01
30021;BME280;16861;52.294;7.760;2023-04-03T01:15:00;101286.16;;;5.48;65.22
30021;BME280;16861;52.294;7.760;2023-04-03T01:17:37;101290.59;;;5.43;64.40
30021;BME280;16861;52.294;7.760;2023-04-03T01:25:32;101298.53;;;5.33;65.46
30021;BME280;16861;52.294;7.760;2023-04-03T01:27:59;101292.50;;;5.28;65.29
30021;BME280;16861;52.294;7.760;2023-04-03T01:30:31;101297.75;;;5.22;64.64
30021;BME280;16861;52.294;7.760;2023-04-03T01:32:58;101289.94;;;5.19;65.49
30021;BME280;16861;52.294;7.760;2023-04-03T01:35:24;101296.06;;;5.15;65.47
30021;BME280;16861;52.294;7.760;2023-04-03T01:37:51;101299.56;;;5.12;65.40
30021;BME280;16861;52.294;7.760;2023-04-03T01:40:17;101301.38;;;5.08;65.71
30021;BME280;16861;52.294;7.760;2023-04-03T01:42:44;101299.66;;;5.06;65.73
30021;BME280;16861;52.294;7.760;2023-04-03T01:45:10;101308.34;;;5.06;65.57
30021;BME280;16861;52.294;7.760;2023-04-03T01:47:37;101308.38;;;5.03;65.73
30021;BME280;16861;52.294;7.760;2023-04-03T01:50:04;101311.88;;;5.02;65.71
30021;BME280;16861;52.294;7.760;2023-04-03T01:52:30;101311.00;;;5.00;65.69
30021;BME280;16861;52.294;7.760;2023-04-03T01:54:57;101304.94;;;4.97;65.73
30021;BME280;16861;52.294;7.760;2023-04-03T01:57:23;101301.47;;;4.93;65.91
30021;BME280;16861;52.294;7.760;2023-04-03T01:59:49;101303.25;;;4.91;65.78
30021;BME280;16861;52.294;7.760;2023-04-03T02:02:17;101308.50;;;4.86;65.83
30021;BME280;16861;52.294;7.760;2023-04-03T02:04:45;101308.53;;;4.83;65.58
30021;BME280;16861;52.294;7.760;2023-04-03T02:07:11;101303.34;;;4.78;65.53
30021;BME280;16861;52.294;7.760;2023-04-03T02:09:37;101305.13;;;4.73;65.67
30021;BME280;16861;52.294;7.760;2023-04-03T02:12:04;101308.63;;;4.69;65.59
30021;BME280;16861;52.294;7.760;2023-04-03T02:14:30;101309.53;;;4.63;65.47
30021;BME280;16861;52.294;7.760;2023-04-03T02:16:57;101318.28;;;4.57;65.90
30021;BME280;16861;52.294;7.760;2023-04-03T02:19:23;101318.31;;;4.53;65.83
30021;BME280;16861;52.294;7.760;2023-04-03T02:21:50;101314.00;;;4.47;65.65
30021;BME280;16861;52.294;7.760;2023-04-03T02:24:16;101319.22;;;4.42;66.12
30021;BME280;16861;52.294;7.760;2023-04-03T02:26:43;101326.22;;;4.40;66.11
30021;BME280;16861;52.294;7.760;2023-04-03T02:29:09;101319.28;;;4.35;66.06
30021;BME280;16861;52.294;7.760;2023-04-03T02:31:35;101313.25;;;4.31;66.19
30021;BME280;16861;52.294;7.760;2023-04-03T02:34:02;101314.13;;;4.27;66.10
30021;BME280;16861;52.294;7.760;2023-04-03T02:36:28;101320.22;;;4.23;66.13
30021;BME280;16861;52.294;7.760;2023-04-03T02:38:58;101318.50;;;4.17;66.06
30021;BME280;16861;52.294;7.760;2023-04-03T02:41:24;101319.41;;;4.13;66.06
30021;BME280;16861;52.294;7.760;2023-04-03T02:43:53;101318.56;;;4.08;66.38
30021;BME280;16861;52.294;7.760;2023-04-03T02:46:20;101321.19;;;4.03;66.36
30021;BME280;16861;52.294;7.760;2023-04-03T02:48:46;101319.47;;;4.00;66.25
30021;BME280;16861;52.294;7.760;2023-04-03T02:51:13;101329.91;;;3.96;66.49
30021;BME280;16861;52.294;7.760;2023-04-03T02:53:39;101319.50;;;3.93;66.40
30021;BME280;16861;52.294;7.760;2023-04-03T02:56:05;101320.38;;;3.90;67.02
30021;BME280;16861;52.294;7.760;2023-04-03T02:58:32;101326.47;;;3.89;66.91
30021;BME280;16861;52.294;7.760;2023-04-03T03:00:58;101322.97;;;3.87;66.89
30021;BME280;16861;52.294;7.760;2023-04-03T03:03:25;101322.97;;;3.87;66.87
30021;BME280;16861;52.294;7.760;2023-04-03T03:06:01;101323.88;;;3.83;65.56
30021;BME280;16861;52.294;7.760;2023-04-03T03:08:27;101328.19;;;3.84;67.01
30021;BME280;16861;52.294;7.760;2023-04-03T03:10:54;101329.97;;;3.82;66.78
30021;BME280;16861;52.294;7.760;2023-04-03T03:13:20;101331.69;;;3.80;66.97
30021;BME280;16861;52.294;7.760;2023-04-03T03:15:46;101333.44;;;3.77;66.64
30021;BME280;16861;52.294;7.760;2023-04-03T03:18:13;101335.16;;;3.77;66.84
30021;BME280;16861;52.294;7.760;2023-04-03T03:20:39;101331.72;;;3.76;66.87
30021;BME280;16861;52.294;7.760;2023-04-03T03:23:06;101335.19;;;3.75;66.60
30021;BME280;16861;52.294;7.760;2023-04-03T03:25:32;101338.66;;;3.76;66.70
30021;BME280;16861;52.294;7.760;2023-04-03T03:27:59;101336.03;;;3.74;66.84
30021;BME280;16861;52.294;7.760;2023-04-03T03:30:25;101331.72;;;3.73;67.14
30021;BME280;16861;52.294;7.760;2023-04-03T03:32:52;101341.25;;;3.76;66.65
30021;BME280;16861;52.294;7.760;2023-04-03T03:35:18;101333.44;;;3.74;66.92
30021;BME280;16861;52.294;7.760;2023-04-03T03:37:45;101336.94;;;3.73;66.99
30021;BME280;16861;52.294;7.760;2023-04-03T03:40:12;101334.31;;;3.72;66.93
30021;BME280;16861;52.294;7.760;2023-04-03T03:42:39;101337.81;;;3.71;66.80
30021;BME280;16861;52.294;7.760;2023-04-03T03:45:06;101335.19;;;3.69;67.03
30021;BME280;16861;52.294;7.760;2023-04-03T03:50:08;101345.63;;;3.68;67.03
30021;BME280;16861;52.294;7.760;2023-04-03T03:52:35;101348.22;;;3.66;66.80
30021;BME280;16861;52.294;7.760;2023-04-03T03:55:01;101349.97;;;3.62;67.04
30021;BME280;16861;52.294;7.760;2023-04-03T03:57:28;101341.31;;;3.60;67.00
30021;BME280;16861;52.294;7.760;2023-04-03T03:59:56;101358.66;;;3.58;67.26
30021;BME280;16861;52.294;7.760;2023-04-03T04:02:23;101356.94;;;3.56;67.07
30021;BME280;16861;52.294;7.760;2023-04-03T04:04:50;101345.66;;;3.54;67.25
30021;BME280;16861;52.294;7.760;2023-04-03T04:07:16;101349.16;;;3.49;67.15
30021;BME280;16861;52.294;7.760;2023-04-03T04:09:43;101355.19;;;3.47;67.41
30021;BME280;16861;52.294;7.760;2023-04-03T04:12:09;101352.63;;;3.44;67.00
30021;BME280;16861;52.294;7.760;2023-04-03T04:14:36;101356.09;;;3.41;67.11
30021;BME280;16861;52.294;7.760;2023-04-03T04:17:02;101362.16;;;3.40;67.16
30021;BME280;16861;52.294;7.760;2023-04-03T04:19:29;101357.81;;;3.37;67.34
30021;BME280;16861;52.294;7.760;2023-04-03T04:21:56;101363.91;;;3.35;67.42
30021;BME280;16861;52.294;7.760;2023-04-03T04:24:22;101362.16;;;3.34;67.28
30021;BME280;16861;52.294;7.760;2023-04-03T04:26:49;101369.13;;;3.32;67.52
30021;BME280;16861;52.294;7.760;2023-04-03T04:29:15;101363.03;;;3.30;67.64
30021;BME280;16861;52.294;7.760;2023-04-03T04:31:42;101369.13;;;3.29;67.74
30021;BME280;16861;52.294;7.760;2023-04-03T04:34:09;101370.84;;;3.26;67.57
30021;BME280;16861;52.294;7.760;2023-04-03T04:36:35;101371.72;;;3.25;67.90
30021;BME280;16861;52.294;7.760;2023-04-03T04:39:02;101379.50;;;3.24;67.59
30021;BME280;16861;52.294;7.760;2023-04-03T04:41:29;101382.13;;;3.22;67.50
30021;BME280;16861;52.294;7.760;2023-04-03T04:43:55;101383.88;;;3.20;67.84
30021;BME280;16861;52.294;7.760;2023-04-03T04:46:21;101390.78;;;3.18;68.05
30021;BME280;16861;52.294;7.760;2023-04-03T04:48:48;101385.63;;;3.17;67.59
30021;BME280;16861;52.294;7.760;2023-04-03T04:51:15;101398.59;;;3.13;68.13
30021;BME280;16861;52.294;7.760;2023-04-03T04:53:42;101393.41;;;3.10;67.43
30021;BME280;16861;52.294;7.760;2023-04-03T04:56:09;101392.53;;;3.08;67.93
30021;BME280;16861;52.294;7.760;2023-04-03T04:58:35;101404.66;;;3.06;67.70
30021;BME280;16861;52.294;7.760;2023-04-03T05:01:07;101398.59;;;3.03;67.83
30021;BME280;16861;52.294;7.760;2023-04-03T05:03:33;101399.47;;;3.02;68.09
30021;BME280;16861;52.294;7.760;2023-04-03T05:06:00;101400.31;;;3.00;68.10
30021;BME280;16861;52.294;7.760;2023-04-03T05:08:27;101406.41;;;2.99;68.14
30021;BME280;16861;52.294;7.760;2023-04-03T05:10:54;101404.66;;;2.98;68.20
30021;BME280;16861;52.294;7.760;2023-04-03T05:13:21;101409.00;;;2.98;68.49
30021;BME280;16861;52.294;7.760;2023-04-03T05:15:48;101409.88;;;2.97;68.13
30021;BME280;16861;52.294;7.760;2023-04-03T05:18:15;101408.97;;;2.96;68.36
30021;BME280;16861;52.294;7.760;2023-04-03T05:20:41;101415.94;;;2.96;68.45
30021;BME280;16861;52.294;7.760;2023-04-03T05:23:10;101418.53;;;2.94;68.34
30021;BME280;16861;52.294;7.760;2023-04-03T05:25:38;101414.19;;;2.93;67.93
30021;BME280;16861;52.294;7.760;2023-04-03T05:28:05;101414.19;;;2.93;68.58
30021;BME280;16861;52.294;7.760;2023-04-03T05:30:31;101413.31;;;2.91;68.39
30021;BME280;16861;52.294;7.760;2023-04-03T05:32:58;101414.19;;;2.89;68.46
30021;BME280;16861;52.294;7.760;2023-04-03T05:35:25;101420.25;;;2.89;68.37
30021;BME280;16861;52.294;7.760;2023-04-03T05:37:52;101418.53;;;2.88;68.80
30021;BME280;16861;52.294;7.760;2023-04-03T05:40:18;101421.97;;;2.87;68.88
30021;BME280;16861;52.294;7.760;2023-04-03T05:42:45;101427.19;;;2.87;68.33
30021;BME280;16861;52.294;7.760;2023-04-03T05:45:12;101434.16;;;2.88;69.13
30021;BME280;16861;52.294;7.760;2023-04-03T05:47:38;101427.19;;;2.90;68.50
30021;BME280;16861;52.294;7.760;2023-04-03T05:50:05;101427.19;;;2.90;69.13
30021;BME280;16861;52.294;7.760;2023-04-03T05:52:37;101432.41;;;2.90;68.37
30021;BME280;16861;52.294;7.760;2023-04-03T05:55:04;101439.34;;;2.94;69.09
30021;BME280;16861;52.294;7.760;2023-04-03T05:57:31;101435.03;;;2.95;68.57
30021;BME280;16861;52.294;7.760;2023-04-03T05:59:58;101434.13;;;2.94;69.15
30021;BME280;16861;52.294;7.760;2023-04-03T06:02:24;101435.88;;;2.95;68.69
30021;BME280;16861;52.294;7.760;2023-04-03T06:04:52;101443.69;;;2.97;69.12
30021;BME280;16861;52.294;7.760;2023-04-03T06:07:21;101442.81;;;2.96;69.36
30021;BME280;16861;52.294;7.760;2023-04-03T06:09:50;101437.59;;;2.98;69.09
30021;BME280;16861;52.294;7.760;2023-04-03T06:12:18;101448.91;;;3.02;69.59
30021;BME280;16861;52.294;7.760;2023-04-03T06:14:45;101443.69;;;3.03;69.24
30021;BME280;16861;52.294;7.760;2023-04-03T06:17:11;101444.56;;;3.07;69.26
30021;BME280;16861;52.294;7.760;2023-04-03T06:19:38;101448.91;;;3.09;69.40
30021;BME280;16861;52.294;7.760;2023-04-03T06:22:05;101455.84;;;3.13;69.46
30021;BME280;16861;52.294;7.760;2023-04-03T06:24:32;101463.69;;;3.17;69.54
30021;BME280;16861;52.294;7.760;2023-04-03T06:26:58;101458.44;;;3.20;69.19
30021;BME280;16861;52.294;7.760;2023-04-03T06:29:25;101464.53;;;3.25;69.26
30021;BME280;16861;52.294;7.760;2023-04-03T06:31:52;101468.03;;;3.29;69.62
30021;BME280;16861;52.294;7.760;2023-04-03T06:34:18;101473.25;;;3.32;69.32
30021;BME280;16861;52.294;7.760;2023-04-03T06:36:45;101478.44;;;3.36;69.26
30021;BME280;16861;52.294;7.760;2023-04-03T06:39:14;101477.56;;;3.39;68.94
30021;BME280;16861;52.294;7.760;2023-04-03T06:41:41;101482.78;;;3.44;69.66
30021;BME280;16861;52.294;7.760;2023-04-03T06:44:08;101480.16;;;3.47;69.43
30021;BME280;16861;52.294;7.760;2023-04-03T06:46:37;101486.25;;;3.50;69.38
30021;BME280;16861;52.294;7.760;2023-04-03T06:49:05;101485.41;;;3.55;69.57
30021;BME280;16861;52.294;7.760;2023-04-03T06:51:34;101494.94;;;3.59;69.42
30021;BME280;16861;52.294;7.760;2023-04-03T06:54:02;101494.09;;;3.63;69.57
30021;BME280;16861;52.294;7.760;2023-04-03T06:56:29;101492.34;;;3.68;69.55
30021;BME280;16861;52.294;7.760;2023-04-03T06:58:56;101498.41;;;3.73;69.49
30021;BME280;16861;52.294;7.760;2023-04-03T07:01:28;101482.78;;;3.76;69.41
30021;BME280;16861;52.294;7.760;2023-04-03T07:03:56;101494.06;;;3.82;69.66
30021;BME280;16861;52.294;7.760;2023-04-03T07:06:23;101491.47;;;3.85;69.40
30021;BME280;16861;52.294;7.760;2023-04-03T07:08:53;101500.13;;;3.87;69.44
30021;BME280;16861;52.294;7.760;2023-04-03T07:11:20;101500.97;;;3.90;69.29
30021;BME280;16861;52.294;7.760;2023-04-03T07:13:47;101508.81;;;3.94;69.45
30021;BME280;16861;52.294;7.760;2023-04-03T07:16:14;101511.41;;;3.98;69.58
30021;BME280;16861;52.294;7.760;2023-04-03T07:18:41;101511.41;;;4.03;69.38
30021;BME280;16861;52.294;7.760;2023-04-03T07:21:08;101511.41;;;4.08;69.19
30021;BME280;16861;52.294;7.760;2023-04-03T07:23:34;101516.59;;;4.14;69.42
30021;BME280;16861;52.294;7.760;2023-04-03T07:26:01;101515.72;;;4.20;69.12
30021;BME280;16861;52.294;7.760;2023-04-03T07:28:28;101521.78;;;4.26;69.19
30021;BME280;16861;52.294;7.760;2023-04-03T07:31:06;101527.84;;;4.32;67.47
30021;BME280;16861;52.294;7.760;2023-04-03T07:33:35;101529.59;;;4.40;68.97
30021;BME280;16861;52.294;7.760;2023-04-03T07:36:04;101535.66;;;4.46;68.81
30021;BME280;16861;52.294;7.760;2023-04-03T07:38:34;101530.44;;;4.50;68.59
30021;BME280;16861;52.294;7.760;2023-04-03T07:41:03;101531.28;;;4.55;68.61
30021;BME280;16861;52.294;7.760;2023-04-03T07:43:29;101530.41;;;4.60;68.29
30021;BME280;16861;52.294;7.760;2023-04-03T07:45:56;101531.25;;;4.65;68.85
30021;BME280;16861;52.294;7.760;2023-04-03T07:48:24;101532.97;;;4.69;68.55
30021;BME280;16861;52.294;7.760;2023-04-03T07:50:52;101537.31;;;4.75;68.20
30021;BME280;16861;52.294;7.760;2023-04-03T07:53:18;101532.94;;;4.78;68.08
30021;BME280;16861;52.294;7.760;2023-04-03T07:55:46;101535.53;;;4.85;67.81
30021;BME280;16861;52.294;7.760;2023-04-03T07:58:17;101540.72;;;4.88;67.40
30021;BME280;16861;52.294;7.760;2023-04-03T08:00:44;101534.59;;;4.95;67.81
30021;BME280;16861;52.294;7.760;2023-04-03T08:03:11;101540.66;;;4.99;67.72
30021;BME280;16861;52.294;7.760;2023-04-03T08:05:40;101540.66;;;5.03;67.56
30021;BME280;16861;52.294;7.760;2023-04-03T08:08:08;101532.78;;;5.09;67.30
30021;BME280;16861;52.294;7.760;2023-04-03T08:10:35;101534.50;;;5.17;67.41
30021;BME280;16861;52.294;7.760;2023-04-03T08:13:02;101533.59;;;5.21;67.18
30021;BME280;16861;52.294;7.760;2023-04-03T08:15:30;101534.44;;;5.26;67.20
30021;BME280;16861;52.294;7.760;2023-04-03T08:17:57;101532.66;;;5.34;66.87
30021;BME280;16861;52.294;7.760;2023-04-03T08:20:24;101534.38;;;5.40;66.98
30021;BME280;16861;52.294;7.760;2023-04-03T08:22:52;101531.69;;;5.48;66.90
30021;BME280;16861;52.294;7.760;2023-04-03T08:25:18;101539.47;;;5.56;66.66
30021;BME280;16861;52.294;7.760;2023-04-03T08:27:45;101537.66;;;5.63;66.39
30021;BME280;16861;52.294;7.760;2023-04-03T08:30:11;101542.88;;;5.69;65.90
30021;BME280;16861;52.294;7.760;2023-04-03T08:32:38;101534.09;;;5.76;66.12
30021;BME280;16861;52.294;7.760;2023-04-03T08:35:06;101541.00;;;5.85;65.76
30021;BME280;16861;52.294;7.760;2023-04-03T08:37:35;101545.31;;;5.91;64.64
30021;BME280;16861;52.294;7.760;2023-04-03T08:40:07;101533.94;;;5.98;64.81
30021;BME280;16861;52.294;7.760;2023-04-03T08:48:41;101524.13;;;6.23;61.95
30021;BME280;16861;52.294;7.760;2023-04-03T08:51:16;101529.25;;;6.34;62.03
30021;BME280;16861;52.294;7.760;2023-04-03T08:53:49;101521.28;;;6.44;63.18
30021;BME280;16861;52.294;7.760;2023-04-03T08:56:21;101531.63;;;6.53;64.68
30021;BME280;16861;52.294;7.760;2023-04-03T08:59:00;101534.22;;;6.59;63.94
30021;BME280;16861;52.294;7.760;2023-04-03T09:01:35;101528.00;;;6.67;61.51
30021;BME280;16861;52.294;7.760;2023-04-03T09:04:10;101531.41;;;6.72;61.45
30021;BME280;16861;52.294;7.760;2023-04-03T09:06:38;101530.41;;;6.84;64.27
30021;BME280;16861;52.294;7.760;2023-04-03T09:09:37;101527.72;;;6.88;59.62
30021;BME280;16861;52.294;7.760;2023-04-03T09:13:10;101532.84;;;6.98;59.71
30021;BME280;16861;52.294;7.760;2023-04-03T09:15:20;101536.16;;;7.12;64.10
30021;BME280;16861;52.294;7.760;2023-04-03T09:20:53;101534.19;;;7.28;60.64
30021;BME280;16861;52.294;7.760;2023-04-03T09:26:17;101542.69;;;7.43;59.85
30021;BME280;16861;52.294;7.760;2023-04-03T09:28:45;101534.69;;;7.52;63.17
30021;BME280;16861;52.294;7.760;2023-04-03T09:31:29;101539.00;;;7.56;59.62
30021;BME280;16861;52.294;7.760;2023-04-03T09:34:02;101541.47;;;7.66;61.67
30021;BME280;16861;52.294;7.760;2023-04-03T09:36:45;101537.00;;;7.73;59.16
30021;BME280;16861;52.294;7.760;2023-04-03T09:39:14;101532.44;;;7.84;61.33
30021;BME280;16861;52.294;7.760;2023-04-03T09:41:41;101531.34;;;7.96;63.45
30021;BME280;16861;52.294;7.760;2023-04-03T09:44:21;101537.47;;;7.98;60.08
30021;BME280;16861;52.294;7.760;2023-04-03T09:46:49;101531.16;;;8.07;62.86
30021;BME280;16861;52.294;7.760;2023-04-03T09:49:17;101529.34;;;8.12;62.48
30021;BME280;16861;52.294;7.760;2023-04-03T09:51:43;101525.69;;;8.19;62.88
30021;BME280;16861;52.294;7.760;2023-04-03T09:54:31;101533.47;;;8.27;58.89
30021;BME280;16861;52.294;7.760;2023-04-03T09:57:06;101526.22;;;8.39;60.23
30021;BME280;16861;52.294;7.760;2023-04-03T09:59:33;101531.25;;;8.50;62.47
30021;BME280;16861;52.294;7.760;2023-04-03T10:02:04;101525.06;;;8.55;60.14
30021;BME280;16861;52.294;7.760;2023-04-03T10:04:42;101525.75;;;8.65;62.46
30021;BME280;16861;52.294;7.760;2023-04-03T10:07:35;101529.19;;;8.67;58.00
30021;BME280;16861;52.294;7.760;2023-04-03T10:10:23;101530.84;;;8.73;58.18
30021;BME280;16861;52.294;7.760;2023-04-03T10:13:16;101517.56;;;8.79;58.64
30021;BME280;16861;52.294;7.760;2023-04-03T10:16:06;101527.94;;;8.87;58.56
30021;BME280;16861;52.294;7.760;2023-04-03T10:18:57;101519.00;;;8.94;58.67
30021;BME280;16861;52.294;7.760;2023-04-03T10:21:46;101518.88;;;9.01;58.45
30021;BME280;16861;52.294;7.760;2023-04-03T10:24:21;101520.44;;;9.09;57.91
30021;BME280;16861;52.294;7.760;2023-04-03T10:27:10;101511.56;;;9.15;57.62
30021;BME280;16861;52.294;7.760;2023-04-03T10:35:37;101496.94;;;9.41;57.71
30021;BME280;16861;52.294;7.760;2023-04-03T10:43:48;101489.88;;;9.80;57.24
30021;BME280;16861;52.294;7.760;2023-04-03T10:48:52;101492.16;;;9.94;57.45
30021;BME280;16861;52.294;7.760;2023-04-03T10:51:38;101490.34;;;9.96;55.97
30021;BME280;16861;52.294;7.760;2023-04-03T10:54:26;101482.28;;;10.02;57.43
30021;BME280;16861;52.294;7.760;2023-04-03T10:56:58;101486.59;;;10.04;56.74
30021;BME280;16861;52.294;7.760;2023-04-03T11:00:01;101481.94;;;10.14;59.52
30021;BME280;16861;52.294;7.760;2023-04-03T11:02:53;101479.09;;;10.22;56.96
30021;BME280;16861;52.294;7.760;2023-04-03T11:05:47;101477.81;;;10.37;56.01
30021;BME280;16861;52.294;7.760;2023-04-03T11:11:19;101473.63;;;10.92;61.73
30021;BME280;16861;52.294;7.760;2023-04-03T11:13:53;101478.63;;;11.28;62.01
30021;BME280;16861;52.294;7.760;2023-04-03T11:16:24;101472.75;;;11.74;62.53
30021;BME280;16861;52.294;7.760;2023-04-03T11:18:54;101468.16;;;12.30;66.34
30021;BME280;16861;52.294;7.760;2023-04-03T11:21:39;101464.13;;;12.92;59.32
30021;BME280;16861;52.294;7.760;2023-04-03T11:24:20;101468.63;;;13.57;58.35
30021;BME280;16861;52.294;7.760;2023-04-03T11:26:49;101454.50;;;14.18;60.32
30021;BME280;16861;52.294;7.760;2023-04-03T11:29:22;101463.84;;;14.66;57.76
30021;BME280;16861;52.294;7.760;2023-04-03T11:34:42;101444.63;;;14.99;54.18
30021;BME280;16861;52.294;7.760;2023-04-03T11:40:03;101448.03;;;15.20;53.79
30021;BME280;16861;52.294;7.760;2023-04-03T11:42:40;101443.50;;;15.22;51.07
30021;BME280;16861;52.294;7.760;2023-04-03T11:47:55;101444.84;;;14.75;49.94
30021;BME280;16861;52.294;7.760;2023-04-03T12:05:54;101426.44;;;13.09;54.25
30021;BME280;16861;52.294;7.760;2023-04-03T12:08:27;101421.50;;;13.22;53.64
30021;BME280;16861;52.294;7.760;2023-04-03T12:16:20;101424.69;;;14.13;51.80
30021;BME280;16861;52.294;7.760;2023-04-03T12:26:46;101420.63;;;14.44;48.70
30021;BME280;16861;52.294;7.760;2023-04-03T12:35:14;101396.59;;;13.71;48.18
30021;BME280;16861;52.294;7.760;2023-04-03T12:38:02;101401.09;;;13.46;46.26
30021;BME280;16861;52.294;7.760;2023-04-03T12:45:52;101392.22;;;12.61;47.92
30021;BME280;16861;52.294;7.760;2023-04-03T12:48:26;101396.88;;;12.30;48.76
30021;BME280;16861;52.294;7.760;2023-04-03T12:50:54;101391.38;;;12.12;51.24
30021;BME280;16861;52.294;7.760;2023-04-03T12:53:25;101392.56;;;12.04;50.66
30021;BME280;16861;52.294;7.760;2023-04-03T12:56:22;101381.53;;;12.18;52.07
30021;BME280;16861;52.294;7.760;2023-04-03T12:58:51;101376.09;;;12.67;58.76
30021;BME280;16861;52.294;7.760;2023-04-03T13:01:21;101371.72;;;13.32;58.59
30021;BME280;16861;52.294;7.760;2023-04-03T13:03:53;101367.66;;;14.06;58.57
30021;BME280;16861;52.294;7.760;2023-04-03T13:06:40;101366.41;;;14.90;60.05
30021;BME280;16861;52.294;7.760;2023-04-03T13:09:19;101367.78;;;15.68;52.37
30021;BME280;16861;52.294;7.760;2023-04-03T13:11:49;101356.78;;;16.26;54.70
30021;BME280;16861;52.294;7.760;2023-04-03T13:14:21;101362.84;;;16.60;49.29
30021;BME280;16861;52.294;7.760;2023-04-03T13:17:12;101357.28;;;16.65;46.56
30021;BME280;16861;52.294;7.760;2023-04-03T13:19:40;101343.38;;;16.60;48.50
30021;BME280;16861;52.294;7.760;2023-04-03T13:24:54;101353.13;;;15.95;46.98
30021;BME280;16861;52.294;7.760;2023-04-03T13:27:23;101364.34;;;15.66;47.99
30021;BME280;16861;52.294;7.760;2023-04-03T13:29:51;101344.47;;;15.57;49.17
30021;BME280;16861;52.294;7.760;2023-04-03T13:32:21;101358.25;;;15.64;48.51
30021;BME280;16861;52.294;7.760;2023-04-03T13:34:49;101357.00;;;15.71;48.87
30021;BME280;16861;52.294;7.760;2023-04-03T13:40:03;101355.47;;;15.67;44.80
30021;BME280;16861;52.294;7.760;2023-04-03T13:42:41;101353.63;;;15.68;45.60
30021;BME280;16861;52.294;7.760;2023-04-03T13:47:44;101343.09;;;15.66;47.63
30021;BME280;16861;52.294;7.760;2023-04-03T13:52:53;101335.91;;;15.34;43.64
30021;BME280;16861;52.294;7.760;2023-04-03T13:55:30;101336.63;;;15.20;45.20
30021;BME280;16861;52.294;7.760;2023-04-03T13:57:58;101324.84;;;15.26;50.65
30021;BME280;16861;52.294;7.760;2023-04-03T14:00:36;101336.03;;;15.49;49.45
30021;BME280;16861;52.294;7.760;2023-04-03T14:03:27;101319.59;;;15.92;49.68
30021;BME280;16861;52.294;7.760;2023-04-03T14:05:55;101314.06;;;16.45;52.80
30021;BME280;16861;52.294;7.760;2023-04-03T14:08:22;101311.22;;;16.95;52.14
30021;BME280;16861;52.294;7.760;2023-04-03T14:11:05;101314.31;;;17.49;51.94
30021;BME280;16861;52.294;7.760;2023-04-03T14:13:32;101310.16;;;18.01;51.61
30021;BME280;16861;52.294;7.760;2023-04-03T14:15:58;101302.97;;;18.58;51.32
30021;BME280;16861;52.294;7.760;2023-04-03T14:18:43;101300.47;;;19.23;50.77
30021;BME280;16861;52.294;7.760;2023-04-03T14:21:12;101302.03;;;19.78;48.04
30021;BME280;16861;52.294;7.760;2023-04-03T14:23:39;101290.47;;;20.28;48.80
30021;BME280;16861;52.294;7.760;2023-04-03T14:26:15;101294.09;;;20.76;44.16
30021;BME280;16861;52.294;7.760;2023-04-03T14:28:43;101289.56;;;21.12;45.96
30021;BME280;16861;52.294;7.760;2023-04-03T14:31:12;101283.38;;;21.23;42.34
30021;BME280;16861;52.294;7.760;2023-04-03T14:33:39;101288.13;;;21.19;42.51
30021;BME280;16861;52.294;7.760;2023-04-03T14:38:38;101276.31;;;20.99;42.31
30021;BME280;16861;52.294;7.760;2023-04-03T14:41:05;101285.16;;;20.88;41.77
30021;BME280;16861;52.294;7.760;2023-04-03T14:43:43;101277.97;;;20.64;40.52
30021;BME280;16861;52.294;7.760;2023-04-03T14:46:34;101286.09;;;20.27;37.96
30021;BME280;16861;52.294;7.760;2023-04-03T14:49:22;101275.63;;;19.86;39.24
30021;BME280;16861;52.294;7.760;2023-04-03T14:51:49;101275.69;;;19.60;41.09
30021;BME280;16861;52.294;7.760;2023-04-03T14:54:19;101273.66;;;19.38;41.27
30021;BME280;16861;52.294;7.760;2023-04-03T14:56:52;101271.09;;;19.36;43.30